Terminal Aerodrome Forecast
Issued by NWS Bismarck, ND

Home | Current Version | Previous Version | Graphics & Text | Print | Product List | Glossary On
Versions: 1 2 3 4 5 6 7 8 9 10 11 12 13 14 15 16 17 18 19 20 21 22
000
FTUS43 KBIS 050253 AAA
TAFISN
TAF AMD
KISN 050253Z 0503/0524 03011KT P6SM SCT100
     FM050900 02012KT P6SM VCTS SCT025 BKN035CB OVC100
     FM051500 36015KT P6SM VCSH SCT040 BKN080=

USA.gov is the U.S. government's official web portal to all federal, state and local government web resources and services.